Dixiana, Alabama
Current Conditions -  °F | °C
As of 10:53 AM on Saturday 22 Nov 2014 (Local Time) from KBHM Reporting Station
Scattered Clouds Scattered Clouds  
Wind Chill: 61°   Ceiling: Unl
Heat Index: 61°   Visibility: 10mi
Dew Point: 39°   Wind: 10mph
Humidity: 44%   Direction: 110°ESE
Pressure: 30.34"   Gusts: NA
Location:  33.7345°N, 86.6508°W
Report Text: KBHM 221653Z 11009KT 10SM SCT250 16/04 A3034 RMK AO2 SLP273 T01610039
Loading
Personal Weather Stations






























Interactive Weather Map New forecast layout! Learn more

10-Day Weather Forecast

Advertisements
Track Severe Weather on mobile